Time;durP1;ratioP1;P1;durP2;ratioP2;P2;SDS_P1;SDS_P2;PMS_P1;PMS_P2;Temp;Humidity;BMP_temperature;BMP_pressure;BME280_temperature;BME280_humidity;BME280_pressure;Samples;Min_cycle;Max_cycle;Signal;HPM_P1;HPM_P2
2022/03/09 00:01:02;;;;;;;;;;;;;;;-0.08;58.07;95129.34;5136773;27;1008;-48
2022/03/09 00:03:28;;;;;;;;;;;;;;;0.02;58.70;95123.53;5136685;27;1036;-48
2022/03/09 00:05:54;;;;;;;;;;;;;;;-0.09;58.66;95124.22;5136652;27;1032;-49
2022/03/09 00:08:20;;;;;;;;;;;;;;;-0.15;58.07;95122.81;5136909;27;1012;-48
2022/03/09 00:10:47;;;;;;;;;;;;;;;-0.03;58.24;95119.41;5136955;27;1237;-48
2022/03/09 00:13:13;;;;;;;;;;;;;;;0.03;57.82;95119.97;5136343;27;1842;-48
2022/03/09 00:15:39;;;;;;;;;;;;;;;-0.01;58.26;95127.19;5136485;27;1906;-48
2022/03/09 00:18:05;;;;;;;;;;;;;;;-0.06;58.13;95114.34;5136528;27;1036;-48
2022/03/09 00:20:31;;;;;;;;;;;;;;;-0.20;57.92;95115.22;5136791;27;1047;-48
2022/03/09 00:22:58;;;;;;;;;;;;;;;-0.22;58.00;95111.84;5136144;27;1097;-48
2022/03/09 00:25:24;;;;;;;;;;;;;;;-0.07;58.19;95117.09;5136512;27;1051;-48
2022/03/09 00:27:50;;;;;;;;;;;;;;;-0.17;58.84;95113.31;5136087;27;1020;-48
2022/03/09 00:30:16;;;;;;;;;;;;;;;-0.09;57.67;95121.59;5136394;27;1218;-48
2022/03/09 00:32:42;;;;;;;;;;;;;;;0.02;57.63;95105.97;5136104;27;1035;-48
2022/03/09 00:35:08;;;;;;;;;;;;;;;0.02;57.83;95113.88;5136000;27;2000;-48
2022/03/09 00:37:34;;;;;;;;;;;;;;;-0.08;58.41;95110.13;5136208;27;995;-48
2022/03/09 00:40:01;;;;;;;;;;;;;;;-0.12;58.58;95114.72;5136407;27;1124;-48
2022/03/09 00:42:27;;;;;;;;;;;;;;;-0.17;58.11;95110.69;5135746;27;1075;-48
2022/03/09 00:44:53;;;;;;;;;;;;;;;-0.29;57.79;95107.91;5135868;27;925;-48
2022/03/09 00:47:19;;;;;;;;;;;;;;;-0.30;58.72;95108.84;5136180;27;987;-48
2022/03/09 00:49:45;;;;;;;;;;;;;;;-0.13;58.55;95099.03;5135707;27;1111;-48
2022/03/09 00:52:11;;;;;;;;;;;;;;;-0.07;59.11;95101.31;5119318;27;1176;-48
2022/03/09 00:54:37;;;;;;;;;;;;;;;-0.12;58.29;95108.63;5115192;28;1914;-48
2022/03/09 00:57:03;;;;;;;;;;;;;;;-0.25;59.11;95101.53;5115504;28;983;-48
2022/03/09 00:59:29;;;;;;;;;;;;;;;-0.23;59.10;95104.91;5115285;28;1039;-48
2022/03/09 01:01:55;;;;;;;;;;;;;;;-0.32;59.20;95110.75;5115332;28;944;-48
2022/03/09 01:04:21;;;;;;;;;;;;;;;-0.48;58.89;95108.22;5115130;28;1020;-48
2022/03/09 01:06:48;;;;;;;;;;;;;;;-0.63;59.95;95098.66;5115092;28;1023;-48
2022/03/09 01:09:14;;;;;;;;;;;;;;;-0.61;59.61;95105.53;5114813;28;1863;-48
2022/03/09 01:11:40;;;;;;;;;;;;;;;-0.52;59.59;95098.00;5115317;28;1037;-48
2022/03/09 01:14:06;;;;;;;;;;;;;;;-0.53;59.79;95101.56;5114406;28;1988;-48
2022/03/09 01:16:32;;;;;;;;;;;;;;;-0.52;60.21;95106.72;5114831;28;1016;-48
2022/03/09 01:18:58;;;;;;;;;;;;;;;-0.53;60.23;95106.81;5114639;28;1084;-48
2022/03/09 01:21:24;;;;;;;;;;;;;;;-0.68;60.77;95098.13;5114895;28;1049;-48
2022/03/09 01:23:50;;;;;;;;;;;;;;;-0.51;60.48;95105.78;5114634;28;1047;-48
2022/03/09 01:26:16;;;;;;;;;;;;;;;-0.55;60.09;95093.78;5114782;28;945;-48
2022/03/09 01:28:42;;;;;;;;;;;;;;;-0.44;59.85;95106.25;5114390;28;1103;-49
2022/03/09 01:31:08;;;;;;;;;;;;;;;-0.53;60.28;95107.69;5114469;28;1044;-48
2022/03/09 01:33:34;;;;;;;;;;;;;;;-0.43;60.43;95110.56;5114477;28;996;-48
2022/03/09 01:36:00;;;;;;;;;;;;;;;-0.48;60.66;95110.84;5113888;28;1897;-48
2022/03/09 01:38:26;;;;;;;;;;;;;;;-0.50;60.21;95112.72;5114584;28;973;-48
2022/03/09 01:40:53;;;;;;;;;;;;;;;-0.34;59.51;95104.75;5114323;28;1008;-48
2022/03/09 01:43:19;;;;;;;;;;;;;;;-0.53;60.62;95102.41;5114045;28;1064;-48
2022/03/09 01:45:45;;;;;;;;;;;;;;;-0.52;60.08;95111.97;5114423;28;1027;-48
2022/03/09 01:48:11;;;;;;;;;;;;;;;-0.53;60.13;95106.81;5114404;28;960;-48
2022/03/09 01:50:37;;;;;;;;;;;;;;;-0.57;60.88;95121.91;5116187;27;1157;-48
2022/03/09 01:53:04;;;;;;;;;;;;;;;-0.37;59.61;95115.44;5134762;27;1015;-48
2022/03/09 01:55:30;;;;;;;;;;;;;;;-0.49;59.89;95113.59;5134624;27;1906;-48
2022/03/09 01:57:56;;;;;;;;;;;;;;;-0.45;60.04;95122.97;5134527;27;967;-48
2022/03/09 02:00:22;;;;;;;;;;;;;;;-0.53;60.88;95115.56;5134712;27;980;-48
2022/03/09 02:02:48;;;;;;;;;;;;;;;-0.61;61.34;95117.78;5134847;27;1003;-48
2022/03/09 02:05:15;;;;;;;;;;;;;;;-0.66;60.86;95123.34;5134554;27;1109;-48
2022/03/09 02:10:26;;;;;;;;;;;;;;;-0.40;59.62;95119.09;5134354;27;1083;-48
2022/03/09 02:12:52;;;;;;;;;;;;;;;-0.32;59.17;95123.88;5134510;27;973;-48
2022/03/09 02:15:18;;;;;;;;;;;;;;;-0.48;59.62;95117.88;5134000;27;1976;-48
2022/03/09 02:17:44;;;;;;;;;;;;;;;-0.36;59.67;95111.88;5134432;27;1032;-48
2022/03/09 02:20:10;;;;;;;;;;;;;;;-0.38;59.11;95120.78;5133193;27;1020;-48
2022/03/09 02:22:37;;;;;;;;;;;;;;;-0.27;58.65;95118.31;5134403;27;969;-48
2022/03/09 02:25:04;;;;;;;;;;;;;;;-0.27;59.09;95113.91;5134003;27;1043;-48
2022/03/09 02:27:30;;;;;;;;;;;;;;;-0.28;58.80;95120.13;5134575;27;1040;-48
2022/03/09 02:29:56;;;;;;;;;;;;;;;-0.27;59.26;95120.94;5134357;27;1028;-48
2022/03/09 02:32:23;;;;;;;;;;;;;;;-0.33;59.43;95119.56;5134488;27;1036;-48
2022/03/09 02:34:50;;;;;;;;;;;;;;;-0.43;59.85;95111.41;5133954;27;1984;-48
2022/03/09 02:37:16;;;;;;;;;;;;;;;-0.46;59.30;95110.75;5134228;27;1106;-48
2022/03/09 02:39:42;;;;;;;;;;;;;;;-0.40;58.68;95111.22;5134230;27;973;-48
2022/03/09 02:42:08;;;;;;;;;;;;;;;-0.41;58.46;95112.16;5134118;28;973;-48
2022/03/09 02:44:35;;;;;;;;;;;;;;;-0.38;59.18;95111.09;5134284;27;988;-48
2022/03/09 02:47:01;;;;;;;;;;;;;;;-0.52;58.58;95113.75;5135675;27;948;-48
2022/03/09 02:49:27;;;;;;;;;;;;;;;-0.53;59.48;95112.06;5138163;27;1028;-48
2022/03/09 02:51:53;;;;;;;;;;;;;;;-0.49;58.69;95119.66;5125255;27;1211;-48
2022/03/09 02:54:19;;;;;;;;;;;;;;;-0.35;58.61;95117.97;5116329;28;1906;-48
2022/03/09 02:56:45;;;;;;;;;;;;;;;-0.26;57.87;95105.09;5117688;28;1082;-48
2022/03/09 02:59:11;;;;;;;;;;;;;;;-0.46;59.84;95114.22;5117720;28;1035;-48
2022/03/09 03:01:37;;;;;;;;;;;;;;;-0.54;58.78;95110.38;5117643;28;1036;-48
2022/03/09 03:04:03;;;;;;;;;;;;;;;-0.38;58.56;95110.28;5117369;28;972;-48
2022/03/09 03:06:29;;;;;;;;;;;;;;;-0.40;58.42;95111.22;5117544;28;1051;-48
2022/03/09 03:08:56;;;;;;;;;;;;;;;-0.49;59.25;95109.16;5117205;28;1084;-49
2022/03/09 03:11:22;;;;;;;;;;;;;;;-0.65;58.92;95104.00;5117376;28;1047;-48
2022/03/09 03:13:49;;;;;;;;;;;;;;;-0.71;59.17;95109.63;5116924;28;1990;-48
2022/03/09 03:16:16;;;;;;;;;;;;;;;-0.76;58.93;95110.84;5117067;27;1084;-48
2022/03/09 03:18:42;;;;;;;;;;;;;;;-0.68;59.03;95112.09;5117356;28;1043;-48
2022/03/09 03:21:08;;;;;;;;;;;;;;;-0.68;58.67;95108.63;5117176;28;948;-48
2022/03/09 03:23:34;;;;;;;;;;;;;;;-0.73;57.49;95108.88;5117347;28;954;-48
2022/03/09 03:26:02;;;;;;;;;;;;;;;-0.77;58.31;95111.81;5116788;28;1071;-48
2022/03/09 03:28:28;;;;;;;;;;;;;;;-0.77;57.83;95103.94;5116997;28;1036;-48
2022/03/09 03:30:54;;;;;;;;;;;;;;;-0.64;57.83;95112.75;5116667;28;1040;-48
2022/03/09 03:33:21;;;;;;;;;;;;;;;-0.61;57.93;95112.53;5116872;28;1106;-48
2022/03/09 03:35:47;;;;;;;;;;;;;;;-0.50;57.64;95106.63;5116857;28;1917;-48
2022/03/09 03:38:14;;;;;;;;;;;;;;;-0.55;57.77;95103.44;5116755;28;948;-48
2022/03/09 03:40:40;;;;;;;;;;;;;;;-0.55;56.88;95108.69;5116860;28;980;-48
2022/03/09 03:43:06;;;;;;;;;;;;;;;-0.62;56.99;95103.00;5116835;27;940;-48
2022/03/09 03:45:32;;;;;;;;;;;;;;;-0.61;56.16;95107.28;5116680;27;981;-48
2022/03/09 03:47:59;;;;;;;;;;;;;;;-0.69;56.18;95107.75;5116426;28;1239;-48
2022/03/09 03:50:25;;;;;;;;;;;;;;;-0.67;56.21;95105.03;5116844;27;1208;-48
2022/03/09 03:52:51;;;;;;;;;;;;;;;-0.68;56.05;95103.38;5136932;27;1044;-48
2022/03/09 03:55:17;;;;;;;;;;;;;;;-0.83;55.97;95102.53;5136893;27;2079;-48
2022/03/09 03:57:43;;;;;;;;;;;;;;;-0.77;55.95;95107.38;5137027;27;1040;-48
2022/03/09 04:00:10;;;;;;;;;;;;;;;-0.79;56.00;95099.59;5136380;27;1983;-48
2022/03/09 04:02:37;;;;;;;;;;;;;;;-0.80;56.24;95097.94;5136705;27;1107;-48
2022/03/09 04:05:04;;;;;;;;;;;;;;;-0.76;55.38;95106.44;5136773;27;1035;-48
2022/03/09 04:07:31;;;;;;;;;;;;;;;-0.76;55.27;95109.06;5136635;27;1039;-48
2022/03/09 04:09:57;;;;;;;;;;;;;;;-0.78;56.10;95105.69;5136717;27;1011;-49
2022/03/09 04:12:24;;;;;;;;;;;;;;;-0.82;56.35;95106.81;5136567;27;1015;-49
2022/03/09 04:14:50;;;;;;;;;;;;;;;-0.62;55.85;95109.06;5136452;27;1937;-49
2022/03/09 04:17:17;;;;;;;;;;;;;;;-0.51;54.87;95111.03;5136476;27;969;-48
2022/03/09 04:19:43;;;;;;;;;;;;;;;-0.54;55.12;95110.38;5136566;27;1243;-48
2022/03/09 04:22:09;;;;;;;;;;;;;;;-0.55;54.75;95109.56;5136182;27;1056;-48
2022/03/09 04:24:35;;;;;;;;;;;;;;;-0.61;55.35;95112.53;5136736;27;995;-48
2022/03/09 04:27:01;;;;;;;;;;;;;;;-0.69;55.40;95118.25;5135001;27;1114;-48
2022/03/09 04:29:27;;;;;;;;;;;;;;;-0.67;55.16;95119.00;5136576;27;959;-48
2022/03/09 04:31:53;;;;;;;;;;;;;;;-0.54;55.34;95124.34;5136337;27;1055;-48
2022/03/09 04:34:19;;;;;;;;;;;;;;;-0.53;55.79;95131.31;5135345;27;1909;-49
2022/03/09 04:36:45;;;;;;;;;;;;;;;-0.50;54.49;95127.63;5135996;27;1031;-48
2022/03/09 04:39:11;;;;;;;;;;;;;;;-0.50;55.03;95122.38;5136144;27;1044;-48
2022/03/09 04:41:37;;;;;;;;;;;;;;;-0.63;53.94;95132.78;5135915;27;1196;-49
2022/03/09 04:44:03;;;;;;;;;;;;;;;-0.62;55.20;95127.44;5135770;27;1012;-48
2022/03/09 04:46:30;;;;;;;;;;;;;;;-0.63;54.52;95131.00;5136139;27;1023;-48
2022/03/09 04:48:56;;;;;;;;;;;;;;;-0.60;53.84;95138.72;5136262;27;1060;-49
2022/03/09 04:51:22;;;;;;;;;;;;;;;-0.76;53.34;95137.09;5127223;27;1211;-49
2022/03/09 04:53:48;;;;;;;;;;;;;;;-0.77;54.19;95141.53;5115210;28;1110;-49
2022/03/09 04:56:15;;;;;;;;;;;;;;;-0.72;54.35;95143.84;5115486;28;1978;-48
2022/03/09 04:58:41;;;;;;;;;;;;;;;-0.71;54.36;95138.50;5115234;28;976;-49
2022/03/09 05:01:07;;;;;;;;;;;;;;;-0.74;54.52;95140.47;5115311;28;1019;-48
2022/03/09 05:03:34;;;;;;;;;;;;;;;-0.71;54.36;95151.66;5114962;28;1088;-47
2022/03/09 05:06:01;;;;;;;;;;;;;;;-0.70;53.97;95155.97;5114968;28;1024;-48
2022/03/09 05:08:27;;;;;;;;;;;;;;;-0.71;54.17;95156.91;5115083;28;1055;-48
2022/03/09 05:10:53;;;;;;;;;;;;;;;-0.75;54.56;95159.81;5115209;28;1018;-49
2022/03/09 05:13:20;;;;;;;;;;;;;;;-0.61;54.51;95160.66;5114585;28;1261;-49
2022/03/09 05:15:47;;;;;;;;;;;;;;;-0.53;54.17;95159.34;5114807;28;1976;-49
2022/03/09 05:18:13;;;;;;;;;;;;;;;-0.50;53.97;95174.91;5114979;28;1008;-49
2022/03/09 05:20:39;;;;;;;;;;;;;;;-0.36;53.25;95172.31;5114747;28;1036;-49
2022/03/09 05:23:05;;;;;;;;;;;;;;;-0.55;54.19;95174.34;5114824;28;961;-49
2022/03/09 05:25:31;;;;;;;;;;;;;;;-0.52;53.85;95176.78;5114978;28;961;-49
2022/03/09 05:28:01;;;;;;;;;;;;;;;-0.44;53.83;95170.16;5114386;28;1048;-49
2022/03/09 05:30:27;;;;;;;;;;;;;;;-0.28;53.14;95174.47;5114499;28;1076;-49
2022/03/09 05:32:53;;;;;;;;;;;;;;;-0.39;53.67;95175.13;5114331;28;1072;-48
2022/03/09 05:35:19;;;;;;;;;;;;;;;-0.42;53.55;95186.66;5114721;28;1906;-48
2022/03/09 05:37:45;;;;;;;;;;;;;;;-0.35;53.69;95183.66;5114457;28;1028;-49
2022/03/09 05:40:12;;;;;;;;;;;;;;;-0.42;52.76;95180.53;5114650;28;956;-49
2022/03/09 05:42:38;;;;;;;;;;;;;;;-0.41;53.57;95187.50;5114069;28;1096;-48
2022/03/09 05:45:05;;;;;;;;;;;;;;;-0.47;54.11;95195.75;5114511;28;991;-49
2022/03/09 05:47:31;;;;;;;;;;;;;;;-0.30;53.69;95185.06;5114202;28;1090;-49
2022/03/09 05:49:58;;;;;;;;;;;;;;;-0.26;53.85;95191.81;5114155;28;1063;-47
2022/03/09 05:52:24;;;;;;;;;;;;;;;-0.40;54.15;95187.41;5131453;27;1161;-49
2022/03/09 05:54:50;;;;;;;;;;;;;;;-0.32;54.04;95186.94;5134840;27;1993;-49
2022/03/09 05:57:21;;;;;;;;;;;;;;;-0.32;53.60;95186.06;5134692;27;1075;-49
2022/03/09 05:59:47;;;;;;;;;;;;;;;-0.23;52.99;95196.03;5134802;27;1043;-49
2022/03/09 06:02:13;;;;;;;;;;;;;;;-0.20;53.43;95198.47;5134929;27;976;-49
2022/03/09 06:04:39;;;;;;;;;;;;;;;-0.14;53.46;95192.81;5134335;27;1075;-48
2022/03/09 06:07:05;;;;;;;;;;;;;;;-0.17;53.67;95197.41;5134442;27;1047;-48
2022/03/09 06:09:31;;;;;;;;;;;;;;;-0.07;53.38;95196.78;5134541;27;1143;-49
2022/03/09 06:11:57;;;;;;;;;;;;;;;0.03;52.76;95197.03;5134266;27;1035;-49
2022/03/09 06:14:23;;;;;;;;;;;;;;;0.20;52.41;95195.97;5134179;27;1906;-49
2022/03/09 06:16:49;;;;;;;;;;;;;;;0.30;52.22;95199.69;5134259;27;2068;-49
2022/03/09 06:19:16;;;;;;;;;;;;;;;0.38;51.68;95197.44;5134114;27;1082;-49
2022/03/09 06:21:42;;;;;;;;;;;;;;;0.63;50.52;95190.59;5134271;27;1019;-47
2022/03/09 06:24:09;;;;;;;;;;;;;;;2.99;46.72;95190.06;5134300;27;944;-49
2022/03/09 06:26:36;;;;;;;;;;;;;;;4.13;43.86;95197.25;5134642;27;992;-49
2022/03/09 06:29:06;;;;;;;;;;;;;;;4.78;41.37;95201.75;5134040;27;1935;-48
2022/03/09 06:31:32;;;;;;;;;;;;;;;5.72;39.22;95206.41;5134464;27;953;-48
2022/03/09 06:33:58;;;;;;;;;;;;;;;7.14;37.01;95198.41;5133821;27;1996;-48
2022/03/09 06:36:24;;;;;;;;;;;;;;;8.89;34.44;95204.28;5134224;28;1008;-48
2022/03/09 06:38:50;;;;;;;;;;;;;;;10.17;32.05;95208.44;5134180;27;1011;-48
2022/03/09 06:41:16;;;;;;;;;;;;;;;11.56;30.29;95208.16;5134310;28;968;-48
2022/03/09 06:43:42;;;;;;;;;;;;;;;12.33;29.42;95209.66;5134143;27;1000;-48
2022/03/09 06:46:08;;;;;;;;;;;;;;;12.01;28.59;95214.91;5134000;28;1856;-48
2022/03/09 06:48:35;;;;;;;;;;;;;;;11.71;29.46;95213.69;5133880;27;957;-49
2022/03/09 06:51:01;;;;;;;;;;;;;;;12.42;28.97;95212.16;5128682;28;1211;-48
2022/03/09 06:53:27;;;;;;;;;;;;;;;13.00;27.36;95223.53;5113732;28;1011;-48
2022/03/09 06:55:53;;;;;;;;;;;;;;;13.99;26.36;95218.44;5113531;28;1917;-49
2022/03/09 06:58:20;;;;;;;;;;;;;;;14.64;25.10;95225.09;5113478;28;1036;-49
2022/03/09 07:00:46;;;;;;;;;;;;;;;14.99;24.67;95216.47;5113511;28;1051;-48
2022/03/09 07:03:12;;;;;;;;;;;;;;;15.12;24.73;95216.63;5113321;28;1087;-49
2022/03/09 07:05:38;;;;;;;;;;;;;;;14.67;25.51;95213.13;5113298;28;1187;-48
2022/03/09 07:08:04;;;;;;;;;;;;;;;13.70;26.39;95207.56;5113624;28;1051;-49
2022/03/09 07:10:30;;;;;;;;;;;;;;;13.85;25.93;95209.31;5113178;28;1083;-48
2022/03/09 07:12:56;;;;;;;;;;;;;;;15.41;25.15;95215.75;5113209;28;1011;-49
2022/03/09 07:15:22;;;;;;;;;;;;;;;16.47;23.38;95217.81;5112915;28;1909;-49
2022/03/09 07:17:48;;;;;;;;;;;;;;;16.69;22.96;95220.47;5113108;28;1119;-48
2022/03/09 07:20:15;;;;;;;;;;;;;;;17.11;22.19;95221.34;5113384;28;973;-49
2022/03/09 07:22:42;;;;;;;;;;;;;;;17.56;21.68;95213.66;5113604;28;1010;-49
2022/03/09 07:25:09;;;;;;;;;;;;;;;18.12;20.95;95213.41;5113026;28;1102;-49
2022/03/09 07:27:35;;;;;;;;;;;;;;;18.46;21.20;95221.56;5112121;28;1218;-48
2022/03/09 07:30:02;;;;;;;;;;;;;;;17.53;21.86;95214.09;5112836;28;1043;-49
2022/03/09 07:32:28;;;;;;;;;;;;;;;17.86;21.60;95219.59;5113132;28;1059;-49
2022/03/09 07:34:54;;;;;;;;;;;;;;;18.58;20.69;95217.16;5115854;28;1910;-49
2022/03/09 07:37:20;;;;;;;;;;;;;;;17.75;21.53;95212.88;5117173;27;1031;-50
2022/03/09 07:39:46;;;;;;;;;;;;;;;18.17;21.01;95214.66;5116598;28;1027;-50
2022/03/09 07:42:12;;;;;;;;;;;;;;;19.27;20.24;95212.25;5116882;28;967;-50
2022/03/09 07:44:39;;;;;;;;;;;;;;;20.33;18.98;95208.16;5116519;28;980;-50
2022/03/09 07:47:05;;;;;;;;;;;;;;;21.12;18.44;95213.94;5116496;28;1043;-50
2022/03/09 07:49:33;;;;;;;;;;;;;;;21.31;17.73;95214.78;5116825;28;1071;-50
2022/03/09 07:52:02;;;;;;;;;;;;;;;21.99;17.72;95213.75;5130634;27;1153;-52
2022/03/09 07:54:28;;;;;;;;;;;;;;;22.29;17.66;95209.38;5137073;27;1995;-52
2022/03/09 07:56:55;;;;;;;;;;;;;;;22.06;17.14;95196.47;5136849;27;1083;-52
2022/03/09 07:59:21;;;;;;;;;;;;;;;22.42;16.92;95201.84;5136899;27;1047;-52
2022/03/09 08:01:53;;;;;;;;;;;;;;;23.23;17.17;95200.47;5136766;27;953;-52
2022/03/09 08:04:19;;;;;;;;;;;;;;;22.82;16.66;95194.84;5137001;27;1150;-50
2022/03/09 08:06:49;;;;;;;;;;;;;;;23.19;15.91;95202.84;5136762;27;1102;-50
2022/03/09 08:09:15;;;;;;;;;;;;;;;24.82;15.12;95201.59;5136832;27;1146;-55
2022/03/09 08:11:42;;;;;;;;;;;;;;;23.59;15.12;95191.94;5136891;27;1046;-51
2022/03/09 08:14:08;;;;;;;;;;;;;;;24.02;15.12;95195.28;5136075;27;1984;-51
2022/03/09 08:16:34;;;;;;;;;;;;;;;23.76;15.29;95196.66;5136794;27;988;-51
2022/03/09 08:19:00;;;;;;;;;;;;;;;23.69;15.21;95194.06;5136839;27;1016;-51
2022/03/09 08:21:26;;;;;;;;;;;;;;;23.89;15.99;95185.47;5136352;27;1056;-51
2022/03/09 08:23:52;;;;;;;;;;;;;;;23.76;16.03;95191.19;5136751;27;981;-52
2022/03/09 08:26:18;;;;;;;;;;;;;;;24.38;15.20;95195.06;5136431;27;1043;-52
2022/03/09 08:28:44;;;;;;;;;;;;;;;23.26;16.18;95186.31;5136262;27;1087;-51
2022/03/09 08:31:10;;;;;;;;;;;;;;;23.46;16.23;95192.22;5136184;27;1023;-51
2022/03/09 08:33:37;;;;;;;;;;;;;;;23.18;16.33;95188.38;5136621;27;1015;-51
2022/03/09 08:36:03;;;;;;;;;;;;;;;23.88;15.21;95182.97;5135973;27;1915;-52
2022/03/09 08:38:29;;;;;;;;;;;;;;;24.22;14.81;95188.53;5136621;27;1200;-51
2022/03/09 08:40:55;;;;;;;;;;;;;;;24.24;16.19;95181.72;5136214;27;1007;-52
2022/03/09 08:43:22;;;;;;;;;;;;;;;24.05;16.46;95175.66;5135821;27;1043;-52
2022/03/09 08:45:48;;;;;;;;;;;;;;;24.06;15.57;95184.69;5135494;27;1027;-51
2022/03/09 08:48:14;;;;;;;;;;;;;;;24.03;15.77;95182.44;5136097;27;1118;-51
2022/03/09 08:50:40;;;;;;;;;;;;;;;20.34;18.11;95174.53;5133219;27;1211;-50
2022/03/09 08:53:06;;;;;;;;;;;;;;;18.62;19.82;95176.97;5115459;28;1027;-50
2022/03/09 08:55:33;;;;;;;;;;;;;;;16.97;20.52;95161.88;5115403;28;1991;-50
2022/03/09 08:58:00;;;;;;;;;;;;;;;16.11;22.77;95167.53;5115008;28;1095;-50
2022/03/09 09:00:26;;;;;;;;;;;;;;;15.17;22.42;95164.88;5115338;28;1047;-50
2022/03/09 09:02:52;;;;;;;;;;;;;;;14.21;24.15;95154.06;5115205;28;1004;-49
2022/03/09 09:05:19;;;;;;;;;;;;;;;14.13;25.90;95156.81;5113828;28;1092;-49
2022/03/09 09:07:45;;;;;;;;;;;;;;;14.51;25.59;95159.44;5115095;28;1052;-50
2022/03/09 09:13:33;;;;;;;;;;;;;;;14.08;26.08;95138.56;5114862;28;1023;-50
2022/03/09 09:15:59;;;;;;;;;;;;;;;14.03;26.20;95136.41;5115166;27;1989;-49
2022/03/09 09:18:26;;;;;;;;;;;;;;;13.62;26.51;95143.97;5113770;28;1056;-50
2022/03/09 09:20:53;;;;;;;;;;;;;;;13.95;25.75;95128.41;5113433;28;995;-49
2022/03/09 09:23:19;;;;;;;;;;;;;;;12.49;26.45;95124.66;5114735;28;982;-49
2022/03/09 09:25:46;;;;;;;;;;;;;;;11.62;28.57;95137.84;5114814;28;963;-50
2022/03/09 09:28:12;;;;;;;;;;;;;;;10.28;31.89;95130.69;5114670;28;1055;-50
2022/03/09 09:30:39;;;;;;;;;;;;;;;10.54;30.72;95133.31;5114668;28;1038;-49
2022/03/09 09:33:05;;;;;;;;;;;;;;;9.40;32.35;95120.09;5114768;28;977;-50
2022/03/09 09:35:31;;;;;;;;;;;;;;;8.95;31.39;95119.22;5114533;27;1902;-50
2022/03/09 09:38:06;;;;;;;;;;;;;;;8.11;31.96;95127.38;5114536;28;993;-50
2022/03/09 09:40:36;;;;;;;;;;;;;;;8.64;32.46;95125.88;5114564;28;1055;-50
2022/03/09 09:43:07;;;;;;;;;;;;;;;9.49;30.35;95121.84;5114064;28;1118;-50
2022/03/09 09:45:35;;;;;;;;;;;;;;;10.49;29.24;95116.06;5114577;28;980;-50
2022/03/09 09:48:02;;;;;;;;;;;;;;;8.90;31.31;95118.81;5114164;28;1047;-50
2022/03/09 09:50:29;;;;;;;;;;;;;;;8.11;32.75;95122.88;5114968;27;1160;-50
2022/03/09 09:52:55;;;;;;;;;;;;;;;7.51;33.72;95123.22;5134762;27;972;-50
2022/03/09 09:55:25;;;;;;;;;;;;;;;6.89;33.91;95120.03;5134690;27;1898;-50
2022/03/09 09:57:51;;;;;;;;;;;;;;;6.68;35.14;95122.81;5133881;27;1044;-49
2022/03/09 10:00:17;;;;;;;;;;;;;;;8.27;32.18;95113.41;5134797;27;1028;-50
2022/03/09 10:02:43;;;;;;;;;;;;;;;9.93;29.94;95112.97;5134808;27;1202;-50
2022/03/09 10:05:15;;;;;;;;;;;;;;;10.85;29.02;95115.84;5134605;27;1100;-50
2022/03/09 10:07:59;;;;;;;;;;;;;;;10.60;29.54;95113.13;5134648;27;968;-49
2022/03/09 10:10:26;;;;;;;;;;;;;;;11.19;29.01;95104.22;5134833;27;1036;-48
2022/03/09 10:12:56;;;;;;;;;;;;;;;11.13;29.06;95106.56;5133941;27;1000;-50
2022/03/09 10:15:22;;;;;;;;;;;;;;;9.80;29.55;95099.19;5134225;27;1974;-49
2022/03/09 10:17:50;;;;;;;;;;;;;;;8.83;30.65;95101.75;5133165;27;1067;-49
2022/03/09 10:20:22;;;;;;;;;;;;;;;7.95;31.52;95106.72;5134435;27;1071;-49
2022/03/09 10:22:49;;;;;;;;;;;;;;;7.80;31.33;95106.34;5134497;27;1020;-49
2022/03/09 10:25:17;;;;;;;;;;;;;;;7.58;31.24;95102.19;5134350;27;1127;-48
2022/03/09 10:27:46;;;;;;;;;;;;;;;7.69;33.11;95102.03;5134117;27;1031;-48
2022/03/09 10:30:13;;;;;;;;;;;;;;;7.56;33.04;95110.31;5134232;28;1003;-48
2022/03/09 10:32:56;;;;;;;;;;;;;;;7.18;33.97;95114.72;5134188;27;1027;-48
2022/03/09 10:35:26;;;;;;;;;;;;;;;6.74;35.82;95108.97;5134168;27;1938;-48
2022/03/09 10:37:52;;;;;;;;;;;;;;;6.51;34.82;95111.06;5134580;27;963;-48
2022/03/09 10:40:20;;;;;;;;;;;;;;;6.55;35.24;95103.66;5134534;27;957;-48
2022/03/09 10:42:47;;;;;;;;;;;;;;;6.50;34.36;95112.00;5133600;27;1084;-48
2022/03/09 10:45:14;;;;;;;;;;;;;;;6.56;34.85;95103.50;5134586;27;1040;-47
2022/03/09 10:47:42;;;;;;;;;;;;;;;6.34;36.53;95117.03;5134123;27;1064;-48
2022/03/09 10:50:30;;;;;;;;;;;;;;;6.38;35.93;95107.81;5134294;27;960;-48
2022/03/09 10:52:57;;;;;;;;;;;;;;;6.47;34.63;95116.75;5113331;28;1042;-48
2022/03/09 10:55:24;;;;;;;;;;;;;;;6.38;35.46;95108.63;5113705;28;1909;-48
2022/03/09 10:57:50;;;;;;;;;;;;;;;6.48;34.87;95108.66;5113523;28;1030;-48
2022/03/09 11:00:34;;;;;;;;;;;;;;;6.55;34.79;95111.63;5113956;28;959;-48
2022/03/09 11:03:04;;;;;;;;;;;;;;;6.51;35.85;95105.75;5113288;28;1134;-48
2022/03/09 11:05:30;;;;;;;;;;;;;;;6.59;34.01;95099.72;5113439;28;965;-48
2022/03/09 11:07:57;;;;;;;;;;;;;;;6.70;34.53;95104.91;5114785;28;953;-47
2022/03/09 11:10:24;;;;;;;;;;;;;;;6.79;35.20;95098.78;5117749;28;1039;-48
2022/03/09 11:12:51;;;;;;;;;;;;;;;6.95;35.48;95098.22;5116781;28;1072;-48
2022/03/09 11:15:19;;;;;;;;;;;;;;;6.67;34.67;95093.72;5117129;28;1918;-48
2022/03/09 11:17:48;;;;;;;;;;;;;;;6.37;34.95;95098.97;5117337;28;1048;-48
2022/03/09 11:20:17;;;;;;;;;;;;;;;6.47;35.13;95088.41;5117174;28;1115;-48
2022/03/09 11:22:43;;;;;;;;;;;;;;;6.48;34.50;95092.72;5117032;28;918;-48
2022/03/09 11:25:10;;;;;;;;;;;;;;;6.35;34.54;95092.97;5117173;27;2036;-48
2022/03/09 11:27:46;;;;;;;;;;;;;;;6.29;35.15;95085.56;5117445;28;1041;-48
2022/03/09 11:30:26;;;;;;;;;;;;;;;6.61;35.09;95092.47;5117354;28;971;-48
2022/03/09 11:32:55;;;;;;;;;;;;;;;6.55;34.62;95088.53;5116680;28;1174;-48
2022/03/09 11:35:40;;;;;;;;;;;;;;;6.53;35.30;95093.16;5116889;28;1996;-48
2022/03/09 11:38:38;;;;;;;;;;;;;;;6.42;35.31;95086.13;5116831;28;996;-48
2022/03/09 11:41:14;;;;;;;;;;;;;;;6.22;33.88;95087.94;5071789;27;1460;-48
2022/03/09 11:43:40;;;;;;;;;;;;;;;6.06;34.54;95087.59;5116451;27;1086;-48
2022/03/09 11:46:07;;;;;;;;;;;;;;;5.99;34.70;95083.78;5116592;28;1047;-48
2022/03/09 11:48:48;;;;;;;;;;;;;;;6.23;34.55;95078.16;5116682;28;1028;-48
2022/03/09 11:51:14;;;;;;;;;;;;;;;6.19;33.45;95085.53;5123808;27;1157;-48
2022/03/09 11:53:44;;;;;;;;;;;;;;;6.19;34.68;95082.88;5136883;27;1072;-48
2022/03/09 11:56:29;;;;;;;;;;;;;;;6.33;34.10;95084.31;5137202;27;1980;-48
2022/03/09 11:59:14;;;;;;;;;;;;;;;6.41;33.44;95083.63;5136902;27;1015;-48
2022/03/09 12:01:55;;;;;;;;;;;;;;;6.50;33.59;95089.94;5137068;27;1043;-48
2022/03/09 12:04:40;;;;;;;;;;;;;;;6.16;33.50;95079.66;5136660;27;1032;-48
2022/03/09 12:07:09;;;;;;;;;;;;;;;6.19;34.75;95082.06;5136941;27;972;-48
2022/03/09 12:09:54;;;;;;;;;;;;;;;6.06;34.49;95079.63;5136757;27;1007;-48
2022/03/09 12:12:20;;;;;;;;;;;;;;;5.85;34.29;95074.38;5136406;27;1087;-48
2022/03/09 12:14:59;;;;;;;;;;;;;;;5.65;35.99;95084.91;5136340;27;1917;-48
2022/03/09 12:17:29;;;;;;;;;;;;;;;5.54;36.68;95063.78;5136710;27;1007;-48
2022/03/09 12:20:14;;;;;;;;;;;;;;;5.33;37.02;95077.06;5135991;27;1020;-48
2022/03/09 12:23:01;;;;;;;;;;;;;;;5.41;36.29;95085.19;5136644;27;1044;-48
2022/03/09 12:25:38;;;;;;;;;;;;;;;5.21;38.30;95076.28;5136358;27;1071;-48
2022/03/09 12:28:25;;;;;;;;;;;;;;;5.01;38.53;95071.84;5136419;27;1043;-47
2022/03/09 12:30:56;;;;;;;;;;;;;;;4.88;39.80;95074.66;5136626;27;1022;-48
2022/03/09 12:33:25;;;;;;;;;;;;;;;4.95;38.78;95077.63;5136607;27;1141;-48
2022/03/09 12:36:10;;;;;;;;;;;;;;;4.82;39.20;95070.72;5136373;27;1988;-46
2022/03/09 12:38:42;;;;;;;;;;;;;;;5.06;38.25;95077.56;5136502;27;1063;-48
2022/03/09 12:41:27;;;;;;;;;;;;;;;5.27;38.37;95073.13;5136031;27;1048;-48
2022/03/09 12:43:54;;;;;;;;;;;;;;;5.65;38.74;95071.66;5135597;27;1039;-48
2022/03/09 12:46:21;;;;;;;;;;;;;;;5.71;38.13;95069.41;5136465;27;1035;-47
2022/03/09 12:48:47;;;;;;;;;;;;;;;5.38;39.54;95074.84;5136076;27;996;-48
2022/03/09 12:51:13;;;;;;;;;;;;;;;5.00;39.71;95072.78;5128824;27;1144;-49
2022/03/09 12:53:41;;;;;;;;;;;;;;;4.58;41.76;95075.41;5115743;28;976;-48
2022/03/09 12:56:14;;;;;;;;;;;;;;;4.43;41.78;95075.69;5114983;28;1989;-49
2022/03/09 12:58:40;;;;;;;;;;;;;;;4.36;41.37;95074.50;5115275;28;977;-49
2022/03/09 13:01:08;;;;;;;;;;;;;;;4.49;41.40;95082.28;5114953;28;1056;-49
2022/03/09 13:03:34;;;;;;;;;;;;;;;4.29;42.55;95082.13;5115249;28;1024;-49
2022/03/09 13:06:05;;;;;;;;;;;;;;;4.37;42.46;95078.84;5115069;28;999;-47
2022/03/09 13:08:35;;;;;;;;;;;;;;;4.35;42.18;95078.13;5115168;28;1060;-48
2022/03/09 13:11:03;;;;;;;;;;;;;;;4.21;42.27;95087.19;5114789;28;972;-48